Wilson Corner, South Dakota
Current Conditions -  °F | °C
As of 7:45 AM on Thursday 27 Nov 2014 (Local Time) from KHEI Reporting Station
Light Snow Light Snow  
Wind Chill: -2°   Ceiling: 5000
Heat Index: 13°   Visibility: 2.5mi
Dew Point: 10°   Wind: 14mph
Humidity: 88%   Direction: 140°SE
Pressure: 30.15"   Gusts: NA
Location:  45.8748°N, 103.314°W
Report Text: KHEI 271445Z AUTO 14012KT 2 1/2SM -SN BR OVC050 M11/M12 A3015 RMK AO2 SNB00 P0000 T11061122
Loading
Personal Weather Stations






























Interactive Weather Map New forecast layout! Learn more

10-Day Weather Forecast

Advertisements
Track Severe Weather on mobile